Time;durP1;ratioP1;P1;durP2;ratioP2;P2;SDS_P1;SDS_P2;PMS_P1;PMS_P2;Temp;Humidity;BMP_temperature;BMP_pressure;BME280_temperature;BME280_humidity;BME280_pressure;Samples;Min_cycle;Max_cycle;Signal;HPM_P1;HPM_P2
2023/01/09 00:03:10;;;;;;;1999.90;999.90;;;7.80;99.90;;;;;;6714332;88;20211;-74
2023/01/09 00:13:12;;;;;;;1999.90;999.90;;;7.50;99.90;;;;;;6720851;77;20158;-78
2023/01/09 00:23:13;;;;;;;1999.90;999.90;;;7.20;99.90;;;;;;6744158;88;20232;-77
2023/01/09 00:33:13;;;;;;;1999.90;999.90;;;7.10;99.90;;;;;;6744931;88;20323;-78
2023/01/09 00:43:14;;;;;;;1999.90;999.90;;;7.00;99.90;;;;;;6737852;88;20354;-78
2023/01/09 00:53:17;;;;;;;1999.90;999.90;;;7.00;99.90;;;;;;6743901;88;20611;-78
2023/01/09 01:03:18;;;;;;;1999.90;999.90;;;7.10;99.90;;;;;;6744512;88;20210;-79
2023/01/09 01:13:18;;;;;;;1999.90;999.90;;;7.10;99.90;;;;;;6744330;88;20255;-78
2023/01/09 01:23:19;;;;;;;1999.90;999.90;;;7.20;99.90;;;;;;6743663;88;20329;-78
2023/01/09 01:33:19;;;;;;;1999.90;999.90;;;7.20;99.90;;;;;;6742935;88;20306;-78
2023/01/09 01:43:20;;;;;;;1999.90;999.90;;;7.30;99.90;;;;;;6762139;88;20196;-78
2023/01/09 01:53:31;;;;;;;1999.90;999.90;;;7.30;99.90;;;;;;6756557;88;20188;-78
2023/01/09 02:03:32;;;;;;;1999.90;999.90;;;7.30;99.90;;;;;;6725459;88;20616;-79
2023/01/09 02:13:34;;;;;;;1999.90;999.90;;;7.30;99.90;;;;;;6721620;88;20797;-80
2023/01/09 02:23:50;;;;;;;1999.90;999.90;;;7.20;99.90;;;;;;6721861;88;20248;-79
2023/01/09 02:34:06;;;;;;;1999.90;999.90;;;7.10;99.90;;;;;;6722155;88;20236;-78
2023/01/09 02:44:20;;;;;;;1999.90;999.90;;;6.80;99.90;;;;;;6725467;88;20291;-79
2023/01/09 02:54:29;;;;;;;1999.90;999.90;;;6.70;99.90;;;;;;6725716;88;20703;-80
2023/01/09 03:04:38;;;;;;;1999.90;999.90;;;6.60;99.90;;;;;;6724850;88;20193;-77
2023/01/09 03:14:44;;;;;;;1999.90;999.90;;;6.60;99.90;;;;;;6724297;88;20247;-77
2023/01/09 03:24:45;;;;;;;1999.90;999.90;;;6.80;99.90;;;;;;6724455;88;20181;-77
2023/01/09 03:34:45;;;;;;;1999.90;999.90;;;6.80;99.90;;;;;;6723872;88;20201;-77
2023/01/09 03:44:46;;;;;;;1999.90;999.90;;;6.70;99.90;;;;;;6720404;88;20498;-77
2023/01/09 03:54:46;;;;;;;1999.90;999.90;;;6.60;99.90;;;;;;6725793;88;20189;-77
2023/01/09 04:04:47;;;;;;;1999.90;999.90;;;6.60;99.90;;;;;;6722445;88;20286;-77
2023/01/09 04:14:47;;;;;;;1999.90;999.90;;;6.20;99.90;;;;;;6725149;88;20225;-79
2023/01/09 04:24:48;;;;;;;1999.90;999.90;;;5.90;99.90;;;;;;6725905;88;20189;-77
2023/01/09 04:34:48;;;;;;;1999.90;999.90;;;5.70;99.90;;;;;;6726221;88;20903;-77
2023/01/09 04:44:52;;;;;;;1999.90;999.90;;;5.60;99.90;;;;;;6725620;88;20646;-76
2023/01/09 04:54:53;;;;;;;1999.90;999.90;;;5.50;99.90;;;;;;6726501;88;20575;-77
2023/01/09 05:04:53;;;;;;;1999.90;999.90;;;5.80;99.90;;;;;;6726916;88;20208;-77
2023/01/09 05:14:54;;;;;;;1999.90;999.90;;;6.40;99.90;;;;;;6725799;88;20215;-78
2023/01/09 05:24:54;;;;;;;1999.90;999.90;;;6.50;99.90;;;;;;6725347;88;20194;-77
2023/01/09 05:34:55;;;;;;;1999.90;999.90;;;6.60;99.90;;;;;;6725079;88;20514;-77
2023/01/09 05:44:55;;;;;;;1999.90;999.90;;;6.60;99.90;;;;;;6726228;88;20723;-78
2023/01/09 05:54:56;;;;;;;1999.90;999.90;;;6.70;99.90;;;;;;6731535;88;20184;-79
2023/01/09 06:04:56;;;;;;;1999.90;999.90;;;6.70;99.90;;;;;;6726256;88;20201;-79
2023/01/09 06:14:57;;;;;;;1999.90;999.90;;;6.70;99.90;;;;;;6731765;88;20217;-80
2023/01/09 06:24:57;;;;;;;1999.90;999.90;;;6.60;99.90;;;;;;6756750;88;20238;-79
2023/01/09 06:34:59;;;;;;;1999.90;999.90;;;6.60;99.90;;;;;;6751641;88;20208;-79
2023/01/09 06:45:00;;;;;;;1999.90;999.90;;;6.60;99.90;;;;;;6745573;88;20217;-80
2023/01/09 06:55:01;;;;;;;1999.90;999.90;;;6.80;99.90;;;;;;6740580;88;20366;-78
2023/01/09 07:05:03;;;;;;;1999.90;999.90;;;7.00;99.90;;;;;;6745457;88;20188;-81
2023/01/09 07:15:04;;;;;;;1999.90;999.90;;;7.10;99.90;;;;;;6735841;88;20180;-78
2023/01/09 07:25:05;;;;;;;1999.90;999.90;;;7.20;99.90;;;;;;6726371;88;20198;-78
2023/01/09 07:35:07;;;;;;;1999.90;999.90;;;7.10;99.90;;;;;;6726629;88;20206;-78
2023/01/09 07:45:08;;;;;;;1999.90;999.90;;;7.10;99.90;;;;;;6725881;88;20255;-78
2023/01/09 07:55:09;;;;;;;1999.90;999.90;;;7.10;99.90;;;;;;6726531;88;20214;-79
2023/01/09 08:05:13;;;;;;;1999.90;999.90;;;7.10;99.90;;;;;;6729924;88;20246;-78
2023/01/09 08:15:14;;;;;;;1999.90;999.90;;;7.20;99.90;;;;;;6725767;88;20263;-78
2023/01/09 08:25:16;;;;;;;1999.90;999.90;;;7.30;99.90;;;;;;6725113;88;20624;-77
2023/01/09 08:35:17;;;;;;;1999.90;999.90;;;7.50;99.90;;;;;;6724870;88;20225;-77
2023/01/09 08:55:37;;;;;;;1999.90;999.90;;;7.60;99.90;;;;;;6726360;88;20271;-79
2023/01/09 09:05:38;;;;;;;1999.90;999.90;;;7.90;99.90;;;;;;6729874;88;20218;-78
2023/01/09 09:15:39;;;;;;;1999.90;999.90;;;7.80;99.90;;;;;;6729701;88;20200;-79
2023/01/09 09:25:39;;;;;;;1999.90;999.90;;;7.90;99.90;;;;;;6710910;88;20195;-78
2023/01/09 09:35:40;;;;;;;1999.90;999.90;;;8.20;99.90;;;;;;6724329;88;20202;-78
2023/01/09 09:45:58;;;;;;;1999.90;999.90;;;8.50;99.90;;;;;;6710419;88;20403;-77
2023/01/09 09:55:58;;;;;;;1999.90;999.90;;;9.20;99.90;;;;;;6722330;88;20193;-78
2023/01/09 10:06:02;;;;;;;1999.90;999.90;;;9.00;99.90;;;;;;6741514;88;20618;-78
2023/01/09 10:16:10;;;;;;;1999.90;999.90;;;9.20;99.90;;;;;;6715864;87;20217;-77
2023/01/09 10:26:26;;;;;;;1999.90;999.90;;;9.30;99.90;;;;;;6718502;88;20693;-77
2023/01/09 10:36:48;;;;;;;1999.90;999.90;;;9.40;99.90;;;;;;6714942;88;20312;-77
2023/01/09 10:46:56;;;;;;;1999.90;999.90;;;9.50;99.90;;;;;;6729833;88;20269;-78
2023/01/09 10:57:11;;;;;;;1999.90;999.90;;;9.50;99.90;;;;;;6740206;88;20173;-78
2023/01/09 11:07:19;;;;;;;1999.90;999.90;;;9.40;99.90;;;;;;6716685;88;20858;-77
2023/01/09 11:17:25;;;;;;;1999.90;999.90;;;9.40;99.90;;;;;;6719563;88;20217;-77
2023/01/09 11:27:26;;;;;;;1999.90;999.90;;;9.30;99.90;;;;;;6730157;88;20317;-77
2023/01/09 11:37:29;;;;;;;1999.90;999.90;;;9.40;99.90;;;;;;6720888;88;20196;-76
2023/01/09 11:47:39;;;;;;;1999.90;999.90;;;9.50;99.90;;;;;;6723548;88;20302;-79
2023/01/09 11:57:40;;;;;;;1999.90;999.90;;;9.50;99.90;;;;;;6724489;88;20596;-78
2023/01/09 12:08:04;;;;;;;1999.90;999.90;;;9.30;99.90;;;;;;6727793;88;20197;-77
2023/01/09 12:18:30;;;;;;;1999.90;999.90;;;9.00;99.90;;;;;;6718410;88;20186;-78
2023/01/09 12:28:43;;;;;;;1999.90;999.90;;;8.80;99.90;;;;;;6723117;77;20304;-78
2023/01/09 12:38:52;;;;;;;1999.90;999.90;;;8.90;99.90;;;;;;6744385;87;20200;-77
2023/01/09 12:49:16;;;;;;;1999.90;999.90;;;8.90;99.90;;;;;;6744962;87;20205;-77
2023/01/09 12:59:40;;;;;;;1999.90;999.90;;;8.70;99.90;;;;;;6740027;88;20631;-77
2023/01/09 13:09:48;;;;;;;1999.90;999.90;;;8.60;99.90;;;;;;6748343;87;20198;-77
2023/01/09 13:19:49;;;;;;;1999.90;999.90;;;8.70;99.90;;;;;;6740594;88;20717;-77
2023/01/09 13:30:05;;;;;;;1999.90;999.90;;;9.10;99.90;;;;;;6752369;88;20209;-76
2023/01/09 13:40:25;;;;;;;1999.90;999.90;;;9.00;99.90;;;;;;6721919;88;20279;-76
2023/01/09 13:50:26;;;;;;;1999.90;999.90;;;9.00;99.90;;;;;;6724183;88;20225;-77
2023/01/09 14:00:36;;;;;;;1999.90;999.90;;;8.90;99.90;;;;;;6728238;88;20194;-77
2023/01/09 14:10:43;;;;;;;1999.90;999.90;;;9.00;99.90;;;;;;6728410;88;20604;-76
2023/01/09 14:20:53;;;;;;;1999.90;999.90;;;8.90;99.90;;;;;;6726080;88;20348;-77
2023/01/09 14:30:54;;;;;;;1999.90;999.90;;;8.60;99.90;;;;;;6730909;88;20241;-76
2023/01/09 14:41:56;;;;;;;1999.90;999.90;;;8.50;99.90;;;;;;6748823;88;20179;-77
2023/01/09 14:51:45;;;;;;;1999.90;999.90;;;8.50;99.90;;;;;;6744633;87;20289;-77
2023/01/09 15:01:50;;;;;;;1999.90;999.90;;;8.60;99.90;;;;;;6744791;88;20186;-77
2023/01/09 15:11:55;;;;;;;1999.90;999.90;;;8.30;99.90;;;;;;6747038;88;20235;-77
2023/01/09 15:22:04;;;;;;;1999.90;999.90;;;8.30;99.90;;;;;;6742583;88;20955;-76
2023/01/09 15:32:16;;;;;;;1999.90;999.90;;;8.10;99.90;;;;;;6733105;88;20217;-78
2023/01/09 15:52:43;;;;;;;1999.90;999.90;;;8.10;99.90;;;;;;6745280;88;20182;-76
2023/01/09 16:13:05;;;;;;;1999.90;999.90;;;7.90;99.90;;;;;;6731067;88;20186;-77
2023/01/09 16:23:28;;;;;;;1999.90;999.90;;;7.60;99.90;;;;;;6740712;87;20201;-77
2023/01/09 16:33:30;;;;;;;1999.90;999.90;;;7.40;99.90;;;;;;6742942;87;20218;-77
2023/01/09 16:43:30;;;;;;;1999.90;999.90;;;7.40;99.90;;;;;;6761750;87;20655;-77
2023/01/09 16:53:31;;;;;;;1999.90;999.90;;;7.30;99.90;;;;;;6751536;88;20335;-78
2023/01/09 17:03:32;;;;;;;1999.90;999.90;;;7.30;99.90;;;;;;6745412;88;20266;-78
2023/01/09 17:13:32;;;;;;;1999.90;999.90;;;7.30;99.90;;;;;;6744601;88;20182;-77
2023/01/09 17:23:33;;;;;;;1999.90;999.90;;;7.30;99.90;;;;;;6741466;88;20656;-77
2023/01/09 17:33:35;;;;;;;1999.90;999.90;;;7.30;99.90;;;;;;6740525;88;20278;-79
2023/01/09 17:43:35;;;;;;;1999.90;999.90;;;7.30;99.90;;;;;;6750453;88;20207;-78
2023/01/09 17:53:36;;;;;;;1999.90;999.90;;;7.20;99.90;;;;;;6738283;88;20195;-78
2023/01/09 18:03:36;;;;;;;1999.90;999.90;;;7.20;99.90;;;;;;6750146;88;20184;-78
2023/01/09 18:13:37;;;;;;;1999.90;999.90;;;7.10;99.90;;;;;;6744786;88;20208;-78
2023/01/09 18:23:37;;;;;;;1999.90;999.90;;;7.00;99.90;;;;;;6745279;88;20309;-78
2023/01/09 18:33:38;;;;;;;1999.90;999.90;;;7.00;99.90;;;;;;6650199;77;20211;-74
2023/01/09 18:43:38;;;;;;;1999.90;999.90;;;7.00;99.90;;;;;;6625124;89;20194;-74
2023/01/09 18:53:39;;;;;;;1999.90;999.90;;;7.00;99.90;;;;;;6634254;88;20218;-74
2023/01/09 19:03:40;;;;;;;1999.90;999.90;;;7.10;99.90;;;;;;6629347;88;20906;-74
2023/01/09 19:13:40;;;;;;;1999.90;999.90;;;7.10;99.90;;;;;;6643320;88;20205;-74
2023/01/09 19:23:42;;;;;;;1999.90;999.90;;;7.20;99.90;;;;;;6640217;88;20323;-75
2023/01/09 19:33:43;;;;;;;1999.90;999.90;;;7.30;99.90;;;;;;6638802;88;20213;-73
2023/01/09 19:43:45;;;;;;;1999.90;999.90;;;7.30;99.90;;;;;;6636893;88;20349;-75
2023/01/09 19:53:54;;;;;;;1999.90;999.90;;;7.30;99.90;;;;;;6638335;88;20324;-76
2023/01/09 20:03:56;;;;;;;1999.90;999.90;;;7.40;99.90;;;;;;6640796;88;20223;-75
2023/01/09 20:13:56;;;;;;;1999.90;999.90;;;7.20;99.90;;;;;;6628770;88;20190;-75
2023/01/09 20:23:59;;;;;;;1999.90;999.90;;;7.20;99.90;;;;;;6631816;89;20207;-75
2023/01/09 20:34:00;;;;;;;1999.90;999.90;;;7.10;99.90;;;;;;6629573;89;20623;-75
2023/01/09 20:44:05;;;;;;;1999.90;999.90;;;6.80;99.90;;;;;;6636061;88;20289;-76
2023/01/09 20:54:06;;;;;;;1999.90;999.90;;;6.70;99.90;;;;;;6635095;89;20339;-74
2023/01/09 21:04:07;;;;;;;1999.90;999.90;;;6.70;99.90;;;;;;6642367;88;20685;-75
2023/01/09 21:14:08;;;;;;;1999.90;999.90;;;6.70;99.90;;;;;;6641867;88;20931;-75
2023/01/09 21:24:08;;;;;;;1999.90;999.90;;;6.70;99.90;;;;;;6627176;89;20259;-75
2023/01/09 21:34:13;;;;;;;1999.90;999.90;;;6.70;99.90;;;;;;6627946;88;20189;-75
2023/01/09 21:54:33;;;;;;;1999.90;999.90;;;6.60;99.90;;;;;;6626534;89;20186;-76
2023/01/09 22:04:34;;;;;;;1999.90;999.90;;;6.40;99.90;;;;;;6633635;88;20178;-76
2023/01/09 22:14:34;;;;;;;1999.90;999.90;;;6.10;99.90;;;;;;6631143;88;20248;-76
2023/01/09 22:24:35;;;;;;;1999.90;999.90;;;6.20;99.90;;;;;;6642545;89;20232;-76
2023/01/09 22:34:35;;;;;;;1999.90;999.90;;;6.20;99.90;;;;;;6643639;88;20186;-76
2023/01/09 22:44:36;;;;;;;1999.90;999.90;;;6.40;99.90;;;;;;6630991;89;20689;-76
2023/01/09 22:54:36;;;;;;;1999.90;999.90;;;6.50;99.90;;;;;;6633454;89;20300;-76
2023/01/09 23:04:37;;;;;;;1999.90;999.90;;;6.50;99.90;;;;;;6649048;89;20187;-75
2023/01/09 23:14:38;;;;;;;1999.90;999.90;;;6.40;99.90;;;;;;6632006;89;20252;-75
2023/01/09 23:24:39;;;;;;;1999.90;999.90;;;6.30;99.90;;;;;;6627840;89;20934;-76
2023/01/09 23:34:40;;;;;;;1999.90;999.90;;;6.40;99.90;;;;;;6630895;89;20398;-75
2023/01/09 23:44:40;;;;;;;1999.90;999.90;;;6.40;99.90;;;;;;6644676;89;20508;-75
2023/01/09 23:54:41;;;;;;;1999.90;999.90;;;6.40;99.90;;;;;;6642772;89;20201;-75
